sensor_id;sensor_type;location;lat;lon;timestamp;P1;durP1;ratioP1;P2;durP2;ratioP2
69381;SDS011;56560;50.692;12.844;2022-08-01T00:01:39;15.73;;;9.32;;
69381;SDS011;56560;50.692;12.844;2022-08-01T00:04:05;14.23;;;8.63;;
69381;SDS011;56560;50.692;12.844;2022-08-01T00:06:31;15.00;;;8.65;;
69381;SDS011;56560;50.692;12.844;2022-08-01T00:08:56;17.05;;;9.43;;
69381;SDS011;56560;50.692;12.844;2022-08-01T00:11:22;15.10;;;9.47;;
69381;SDS011;56560;50.692;12.844;2022-08-01T00:13:48;17.45;;;9.93;;
69381;SDS011;56560;50.692;12.844;2022-08-01T00:16:14;16.50;;;9.23;;
69381;SDS011;56560;50.692;12.844;2022-08-01T00:18:41;15.38;;;9.35;;
69381;SDS011;56560;50.692;12.844;2022-08-01T00:21:06;16.10;;;9.13;;
69381;SDS011;56560;50.692;12.844;2022-08-01T00:23:32;14.70;;;9.03;;
69381;SDS011;56560;50.692;12.844;2022-08-01T00:25:58;14.82;;;8.50;;
69381;SDS011;56560;50.692;12.844;2022-08-01T00:28:23;17.93;;;9.50;;
69381;SDS011;56560;50.692;12.844;2022-08-01T00:30:49;16.17;;;9.20;;
69381;SDS011;56560;50.692;12.844;2022-08-01T00:33:15;15.53;;;9.30;;
69381;SDS011;56560;50.692;12.844;2022-08-01T00:35:40;15.60;;;9.02;;
69381;SDS011;56560;50.692;12.844;2022-08-01T00:38:06;14.63;;;8.50;;
69381;SDS011;56560;50.692;12.844;2022-08-01T00:40:32;15.10;;;9.13;;
69381;SDS011;56560;50.692;12.844;2022-08-01T00:42:58;14.70;;;9.40;;
69381;SDS011;56560;50.692;12.844;2022-08-01T00:45:23;14.65;;;9.13;;
69381;SDS011;56560;50.692;12.844;2022-08-01T00:47:49;16.27;;;9.17;;
69381;SDS011;56560;50.692;12.844;2022-08-01T00:50:15;17.73;;;9.50;;
69381;SDS011;56560;50.692;12.844;2022-08-01T00:52:40;15.88;;;9.75;;
69381;SDS011;56560;50.692;12.844;2022-08-01T00:55:07;16.75;;;9.60;;
69381;SDS011;56560;50.692;12.844;2022-08-01T00:57:34;15.10;;;9.50;;
69381;SDS011;56560;50.692;12.844;2022-08-01T01:00:00;16.63;;;9.90;;
69381;SDS011;56560;50.692;12.844;2022-08-01T01:02:25;20.08;;;9.93;;
69381;SDS011;56560;50.692;12.844;2022-08-01T01:04:51;14.57;;;9.13;;
69381;SDS011;56560;50.692;12.844;2022-08-01T01:07:35;16.13;;;10.00;;
69381;SDS011;56560;50.692;12.844;2022-08-01T01:10:29;18.02;;;9.95;;
69381;SDS011;56560;50.692;12.844;2022-08-01T01:13:07;17.65;;;9.73;;
69381;SDS011;56560;50.692;12.844;2022-08-01T01:15:40;15.50;;;9.52;;
69381;SDS011;56560;50.692;12.844;2022-08-01T01:23:54;16.67;;;10.57;;
69381;SDS011;56560;50.692;12.844;2022-08-01T01:29:26;16.10;;;9.18;;
69381;SDS011;56560;50.692;12.844;2022-08-01T01:32:05;14.85;;;9.07;;
69381;SDS011;56560;50.692;12.844;2022-08-01T01:34:39;14.88;;;9.10;;
69381;SDS011;56560;50.692;12.844;2022-08-01T01:37:19;14.30;;;9.38;;
69381;SDS011;56560;50.692;12.844;2022-08-01T01:39:48;17.42;;;9.68;;
69381;SDS011;56560;50.692;12.844;2022-08-01T01:42:17;15.38;;;9.23;;
69381;SDS011;56560;50.692;12.844;2022-08-01T01:44:43;15.15;;;9.23;;
69381;SDS011;56560;50.692;12.844;2022-08-01T01:47:13;18.98;;;10.05;;
69381;SDS011;56560;50.692;12.844;2022-08-01T01:49:41;19.15;;;10.10;;
69381;SDS011;56560;50.692;12.844;2022-08-01T01:52:10;15.98;;;9.32;;
69381;SDS011;56560;50.692;12.844;2022-08-01T01:54:42;16.85;;;9.23;;
69381;SDS011;56560;50.692;12.844;2022-08-01T01:57:12;15.32;;;9.48;;
69381;SDS011;56560;50.692;12.844;2022-08-01T01:59:39;14.75;;;9.38;;
69381;SDS011;56560;50.692;12.844;2022-08-01T02:02:06;15.30;;;9.63;;
69381;SDS011;56560;50.692;12.844;2022-08-01T02:04:37;15.15;;;9.27;;
69381;SDS011;56560;50.692;12.844;2022-08-01T02:07:07;14.80;;;9.43;;
69381;SDS011;56560;50.692;12.844;2022-08-01T02:09:35;16.23;;;10.05;;
69381;SDS011;56560;50.692;12.844;2022-08-01T02:12:02;16.25;;;9.85;;
69381;SDS011;56560;50.692;12.844;2022-08-01T02:14:31;17.77;;;9.65;;
69381;SDS011;56560;50.692;12.844;2022-08-01T02:17:00;17.08;;;9.68;;
69381;SDS011;56560;50.692;12.844;2022-08-01T02:19:28;16.52;;;9.40;;
69381;SDS011;56560;50.692;12.844;2022-08-01T02:22:02;15.15;;;9.20;;
69381;SDS011;56560;50.692;12.844;2022-08-01T02:27:17;13.48;;;8.70;;
69381;SDS011;56560;50.692;12.844;2022-08-01T02:30:07;13.93;;;8.50;;
69381;SDS011;56560;50.692;12.844;2022-08-01T02:32:36;15.85;;;8.90;;
69381;SDS011;56560;50.692;12.844;2022-08-01T02:35:07;14.68;;;9.90;;
69381;SDS011;56560;50.692;12.844;2022-08-01T02:37:42;15.55;;;9.40;;
69381;SDS011;56560;50.692;12.844;2022-08-01T02:40:10;15.18;;;9.18;;
69381;SDS011;56560;50.692;12.844;2022-08-01T02:42:37;13.52;;;8.82;;
69381;SDS011;56560;50.692;12.844;2022-08-01T02:45:08;14.68;;;8.90;;
69381;SDS011;56560;50.692;12.844;2022-08-01T02:47:35;14.57;;;9.05;;
69381;SDS011;56560;50.692;12.844;2022-08-01T02:50:04;14.40;;;8.77;;
69381;SDS011;56560;50.692;12.844;2022-08-01T02:52:33;13.70;;;8.63;;
69381;SDS011;56560;50.692;12.844;2022-08-01T02:54:59;14.75;;;9.30;;
69381;SDS011;56560;50.692;12.844;2022-08-01T02:57:26;14.70;;;9.45;;
69381;SDS011;56560;50.692;12.844;2022-08-01T02:59:53;14.43;;;9.13;;
69381;SDS011;56560;50.692;12.844;2022-08-01T03:02:20;14.77;;;9.50;;
69381;SDS011;56560;50.692;12.844;2022-08-01T03:04:47;16.30;;;9.30;;
69381;SDS011;56560;50.692;12.844;2022-08-01T03:07:16;16.85;;;9.25;;
69381;SDS011;56560;50.692;12.844;2022-08-01T03:09:43;15.73;;;9.52;;
69381;SDS011;56560;50.692;12.844;2022-08-01T03:12:19;15.65;;;9.00;;
69381;SDS011;56560;50.692;12.844;2022-08-01T03:14:49;14.20;;;8.88;;
69381;SDS011;56560;50.692;12.844;2022-08-01T03:17:18;15.93;;;9.10;;
69381;SDS011;56560;50.692;12.844;2022-08-01T03:19:48;16.08;;;8.85;;
69381;SDS011;56560;50.692;12.844;2022-08-01T03:22:15;16.42;;;9.20;;
69381;SDS011;56560;50.692;12.844;2022-08-01T03:24:42;13.57;;;8.10;;
69381;SDS011;56560;50.692;12.844;2022-08-01T03:27:10;14.52;;;8.40;;
69381;SDS011;56560;50.692;12.844;2022-08-01T03:29:39;14.20;;;8.13;;
69381;SDS011;56560;50.692;12.844;2022-08-01T03:32:06;13.95;;;7.68;;
69381;SDS011;56560;50.692;12.844;2022-08-01T03:34:33;13.82;;;8.40;;
69381;SDS011;56560;50.692;12.844;2022-08-01T03:39:50;15.00;;;8.67;;
69381;SDS011;56560;50.692;12.844;2022-08-01T03:42:28;13.75;;;8.07;;
69381;SDS011;56560;50.692;12.844;2022-08-01T03:44:59;14.20;;;8.88;;
69381;SDS011;56560;50.692;12.844;2022-08-01T03:47:37;16.02;;;8.48;;
69381;SDS011;56560;50.692;12.844;2022-08-01T03:50:07;13.25;;;8.20;;
69381;SDS011;56560;50.692;12.844;2022-08-01T03:52:34;15.23;;;7.93;;
69381;SDS011;56560;50.692;12.844;2022-08-01T03:55:05;13.85;;;7.60;;
69381;SDS011;56560;50.692;12.844;2022-08-01T03:57:32;15.23;;;8.88;;
69381;SDS011;56560;50.692;12.844;2022-08-01T03:59:59;14.43;;;8.48;;
69381;SDS011;56560;50.692;12.844;2022-08-01T04:02:26;16.92;;;8.50;;
69381;SDS011;56560;50.692;12.844;2022-08-01T04:04:53;15.10;;;8.10;;
69381;SDS011;56560;50.692;12.844;2022-08-01T04:09:48;12.20;;;7.93;;
69381;SDS011;56560;50.692;12.844;2022-08-01T04:12:14;13.60;;;8.30;;
69381;SDS011;56560;50.692;12.844;2022-08-01T04:14:39;15.88;;;8.10;;
69381;SDS011;56560;50.692;12.844;2022-08-01T04:17:05;14.80;;;8.17;;
69381;SDS011;56560;50.692;12.844;2022-08-01T04:19:31;14.75;;;7.78;;
69381;SDS011;56560;50.692;12.844;2022-08-01T04:21:56;13.30;;;7.43;;
69381;SDS011;56560;50.692;12.844;2022-08-01T04:24:22;13.68;;;8.10;;
69381;SDS011;56560;50.692;12.844;2022-08-01T04:26:50;12.38;;;7.70;;
69381;SDS011;56560;50.692;12.844;2022-08-01T04:29:17;14.03;;;7.73;;
69381;SDS011;56560;50.692;12.844;2022-08-01T04:31:46;14.70;;;7.78;;
69381;SDS011;56560;50.692;12.844;2022-08-01T04:34:15;12.82;;;8.00;;
69381;SDS011;56560;50.692;12.844;2022-08-01T04:36:45;14.65;;;7.70;;
69381;SDS011;56560;50.692;12.844;2022-08-01T04:39:12;12.85;;;7.63;;
69381;SDS011;56560;50.692;12.844;2022-08-01T04:41:40;13.23;;;7.60;;
69381;SDS011;56560;50.692;12.844;2022-08-01T04:44:06;12.75;;;7.22;;
69381;SDS011;56560;50.692;12.844;2022-08-01T04:46:32;13.07;;;7.60;;
69381;SDS011;56560;50.692;12.844;2022-08-01T04:48:59;11.98;;;7.30;;
69381;SDS011;56560;50.692;12.844;2022-08-01T04:51:25;12.15;;;6.80;;
69381;SDS011;56560;50.692;12.844;2022-08-01T04:53:51;11.60;;;7.10;;
69381;SDS011;56560;50.692;12.844;2022-08-01T04:56:18;15.15;;;7.30;;
69381;SDS011;56560;50.692;12.844;2022-08-01T04:58:45;11.50;;;7.07;;
69381;SDS011;56560;50.692;12.844;2022-08-01T05:01:11;12.38;;;6.63;;
69381;SDS011;56560;50.692;12.844;2022-08-01T05:03:37;12.75;;;7.03;;
69381;SDS011;56560;50.692;12.844;2022-08-01T05:06:03;12.02;;;6.28;;
69381;SDS011;56560;50.692;12.844;2022-08-01T05:08:29;12.40;;;6.80;;
69381;SDS011;56560;50.692;12.844;2022-08-01T05:10:55;12.05;;;6.63;;
69381;SDS011;56560;50.692;12.844;2022-08-01T05:13:22;10.65;;;6.25;;
69381;SDS011;56560;50.692;12.844;2022-08-01T05:15:47;11.57;;;6.40;;
69381;SDS011;56560;50.692;12.844;2022-08-01T05:18:13;11.10;;;6.63;;
69381;SDS011;56560;50.692;12.844;2022-08-01T05:20:39;11.55;;;6.68;;
69381;SDS011;56560;50.692;12.844;2022-08-01T05:23:06;11.38;;;6.47;;
69381;SDS011;56560;50.692;12.844;2022-08-01T05:25:32;12.00;;;6.40;;
69381;SDS011;56560;50.692;12.844;2022-08-01T05:27:58;11.95;;;6.40;;
69381;SDS011;56560;50.692;12.844;2022-08-01T05:30:24;12.60;;;6.57;;
69381;SDS011;56560;50.692;12.844;2022-08-01T05:32:50;12.27;;;6.73;;
69381;SDS011;56560;50.692;12.844;2022-08-01T05:35:15;12.68;;;7.03;;
69381;SDS011;56560;50.692;12.844;2022-08-01T05:37:41;11.80;;;6.90;;
69381;SDS011;56560;50.692;12.844;2022-08-01T05:40:07;12.00;;;6.73;;
69381;SDS011;56560;50.692;12.844;2022-08-01T05:42:33;12.05;;;6.90;;
69381;SDS011;56560;50.692;12.844;2022-08-01T05:44:58;13.77;;;6.60;;
69381;SDS011;56560;50.692;12.844;2022-08-01T05:47:24;13.23;;;6.25;;
69381;SDS011;56560;50.692;12.844;2022-08-01T05:49:50;12.30;;;6.40;;
69381;SDS011;56560;50.692;12.844;2022-08-01T05:52:15;11.85;;;6.78;;
69381;SDS011;56560;50.692;12.844;2022-08-01T05:54:41;11.40;;;6.40;;
69381;SDS011;56560;50.692;12.844;2022-08-01T05:57:06;10.90;;;6.03;;
69381;SDS011;56560;50.692;12.844;2022-08-01T05:59:32;12.80;;;6.18;;
69381;SDS011;56560;50.692;12.844;2022-08-01T06:01:58;11.55;;;5.53;;
69381;SDS011;56560;50.692;12.844;2022-08-01T06:04:24;10.77;;;6.07;;
69381;SDS011;56560;50.692;12.844;2022-08-01T06:06:49;11.53;;;5.60;;
69381;SDS011;56560;50.692;12.844;2022-08-01T06:09:15;15.17;;;7.00;;
69381;SDS011;56560;50.692;12.844;2022-08-01T06:11:40;10.17;;;5.03;;
69381;SDS011;56560;50.692;12.844;2022-08-01T06:14:06;10.73;;;5.72;;
69381;SDS011;56560;50.692;12.844;2022-08-01T06:16:32;10.13;;;5.30;;
69381;SDS011;56560;50.692;12.844;2022-08-01T06:18:57;10.13;;;5.75;;
69381;SDS011;56560;50.692;12.844;2022-08-01T06:21:23;10.63;;;5.53;;
69381;SDS011;56560;50.692;12.844;2022-08-01T06:23:49;14.15;;;5.68;;
69381;SDS011;56560;50.692;12.844;2022-08-01T06:26:17;11.17;;;5.03;;
69381;SDS011;56560;50.692;12.844;2022-08-01T06:28:43;11.68;;;5.78;;
69381;SDS011;56560;50.692;12.844;2022-08-01T06:31:09;10.47;;;5.73;;
69381;SDS011;56560;50.692;12.844;2022-08-01T06:33:37;11.68;;;5.78;;
69381;SDS011;56560;50.692;12.844;2022-08-01T06:36:03;11.70;;;5.50;;
69381;SDS011;56560;50.692;12.844;2022-08-01T06:38:29;10.93;;;5.40;;
69381;SDS011;56560;50.692;12.844;2022-08-01T06:40:54;10.43;;;5.57;;
69381;SDS011;56560;50.692;12.844;2022-08-01T06:43:20;10.27;;;5.53;;
69381;SDS011;56560;50.692;12.844;2022-08-01T06:45:46;10.35;;;5.03;;
69381;SDS011;56560;50.692;12.844;2022-08-01T06:48:12;11.77;;;5.22;;
69381;SDS011;56560;50.692;12.844;2022-08-01T06:50:38;11.30;;;5.60;;
69381;SDS011;56560;50.692;12.844;2022-08-01T06:53:04;11.85;;;5.43;;
69381;SDS011;56560;50.692;12.844;2022-08-01T06:55:30;11.02;;;5.45;;
69381;SDS011;56560;50.692;12.844;2022-08-01T06:57:56;11.23;;;5.10;;
69381;SDS011;56560;50.692;12.844;2022-08-01T07:00:22;9.90;;;5.38;;
69381;SDS011;56560;50.692;12.844;2022-08-01T07:02:50;10.02;;;5.05;;
69381;SDS011;56560;50.692;12.844;2022-08-01T07:05:17;9.57;;;5.00;;
69381;SDS011;56560;50.692;12.844;2022-08-01T07:07:43;12.70;;;5.30;;
69381;SDS011;56560;50.692;12.844;2022-08-01T07:10:09;9.82;;;5.05;;
69381;SDS011;56560;50.692;12.844;2022-08-01T07:12:35;9.60;;;5.05;;
69381;SDS011;56560;50.692;12.844;2022-08-01T07:15:05;11.23;;;4.97;;
69381;SDS011;56560;50.692;12.844;2022-08-01T07:17:41;9.23;;;4.45;;
69381;SDS011;56560;50.692;12.844;2022-08-01T07:20:08;9.07;;;4.25;;
69381;SDS011;56560;50.692;12.844;2022-08-01T07:22:35;8.52;;;4.20;;
69381;SDS011;56560;50.692;12.844;2022-08-01T07:25:02;8.98;;;4.80;;
69381;SDS011;56560;50.692;12.844;2022-08-01T07:27:29;10.23;;;4.70;;
69381;SDS011;56560;50.692;12.844;2022-08-01T07:29:55;10.25;;;4.68;;
69381;SDS011;56560;50.692;12.844;2022-08-01T07:32:20;9.33;;;4.53;;
69381;SDS011;56560;50.692;12.844;2022-08-01T07:34:49;8.52;;;3.85;;
69381;SDS011;56560;50.692;12.844;2022-08-01T07:37:14;8.95;;;4.15;;
69381;SDS011;56560;50.692;12.844;2022-08-01T07:39:40;9.40;;;4.20;;
69381;SDS011;56560;50.692;12.844;2022-08-01T07:42:06;9.17;;;4.10;;
69381;SDS011;56560;50.692;12.844;2022-08-01T07:44:31;9.77;;;4.32;;
69381;SDS011;56560;50.692;12.844;2022-08-01T07:46:57;8.68;;;3.90;;
69381;SDS011;56560;50.692;12.844;2022-08-01T07:49:23;8.80;;;4.20;;
69381;SDS011;56560;50.692;12.844;2022-08-01T07:51:48;8.63;;;4.10;;
69381;SDS011;56560;50.692;12.844;2022-08-01T07:54:14;8.02;;;4.22;;
69381;SDS011;56560;50.692;12.844;2022-08-01T07:56:40;8.60;;;4.17;;
69381;SDS011;56560;50.692;12.844;2022-08-01T07:59:05;9.48;;;4.65;;
69381;SDS011;56560;50.692;12.844;2022-08-01T08:01:31;8.77;;;4.13;;
69381;SDS011;56560;50.692;12.844;2022-08-01T08:03:56;10.10;;;4.27;;
69381;SDS011;56560;50.692;12.844;2022-08-01T08:06:22;8.93;;;3.90;;
69381;SDS011;56560;50.692;12.844;2022-08-01T08:08:48;9.63;;;4.10;;
69381;SDS011;56560;50.692;12.844;2022-08-01T08:11:13;9.27;;;4.00;;
69381;SDS011;56560;50.692;12.844;2022-08-01T08:13:39;8.67;;;4.30;;
69381;SDS011;56560;50.692;12.844;2022-08-01T08:16:05;8.48;;;4.40;;
69381;SDS011;56560;50.692;12.844;2022-08-01T08:18:30;9.10;;;4.20;;
69381;SDS011;56560;50.692;12.844;2022-08-01T08:20:56;10.87;;;4.50;;
69381;SDS011;56560;50.692;12.844;2022-08-01T08:23:22;9.77;;;4.88;;
69381;SDS011;56560;50.692;12.844;2022-08-01T08:26:06;9.55;;;4.35;;
69381;SDS011;56560;50.692;12.844;2022-08-01T08:28:31;9.60;;;4.07;;
69381;SDS011;56560;50.692;12.844;2022-08-01T08:30:57;7.57;;;3.63;;
69381;SDS011;56560;50.692;12.844;2022-08-01T08:33:23;7.07;;;3.00;;
69381;SDS011;56560;50.692;12.844;2022-08-01T08:35:48;4.73;;;2.10;;
69381;SDS011;56560;50.692;12.844;2022-08-01T08:38:14;3.88;;;1.83;;
69381;SDS011;56560;50.692;12.844;2022-08-01T08:40:40;4.53;;;2.10;;
69381;SDS011;56560;50.692;12.844;2022-08-01T08:43:05;4.15;;;2.10;;
69381;SDS011;56560;50.692;12.844;2022-08-01T08:45:31;6.37;;;2.73;;
69381;SDS011;56560;50.692;12.844;2022-08-01T08:47:57;5.60;;;2.30;;
69381;SDS011;56560;50.692;12.844;2022-08-01T08:50:27;8.30;;;2.60;;
69381;SDS011;56560;50.692;12.844;2022-08-01T08:52:54;7.28;;;2.67;;
69381;SDS011;56560;50.692;12.844;2022-08-01T08:55:21;6.53;;;2.47;;
69381;SDS011;56560;50.692;12.844;2022-08-01T08:57:48;4.63;;;2.13;;
69381;SDS011;56560;50.692;12.844;2022-08-01T09:00:14;5.38;;;2.10;;
69381;SDS011;56560;50.692;12.844;2022-08-01T09:02:44;5.85;;;1.95;;
69381;SDS011;56560;50.692;12.844;2022-08-01T09:05:12;4.53;;;2.00;;
69381;SDS011;56560;50.692;12.844;2022-08-01T09:07:38;2.63;;;1.60;;
69381;SDS011;56560;50.692;12.844;2022-08-01T09:10:04;3.58;;;1.63;;
69381;SDS011;56560;50.692;12.844;2022-08-01T09:12:30;3.65;;;1.50;;
69381;SDS011;56560;50.692;12.844;2022-08-01T09:14:56;2.10;;;1.40;;
69381;SDS011;56560;50.692;12.844;2022-08-01T09:17:22;3.47;;;1.58;;
69381;SDS011;56560;50.692;12.844;2022-08-01T09:19:49;3.70;;;1.80;;
69381;SDS011;56560;50.692;12.844;2022-08-01T09:22:20;3.53;;;1.80;;
69381;SDS011;56560;50.692;12.844;2022-08-01T09:25:02;3.78;;;1.80;;
69381;SDS011;56560;50.692;12.844;2022-08-01T09:27:28;4.05;;;1.88;;
69381;SDS011;56560;50.692;12.844;2022-08-01T09:29:54;4.13;;;2.00;;
69381;SDS011;56560;50.692;12.844;2022-08-01T09:32:31;4.47;;;2.20;;
69381;SDS011;56560;50.692;12.844;2022-08-01T09:37:51;4.45;;;2.13;;
69381;SDS011;56560;50.692;12.844;2022-08-01T09:40:57;5.20;;;2.30;;
69381;SDS011;56560;50.692;12.844;2022-08-01T09:43:23;4.70;;;2.35;;
69381;SDS011;56560;50.692;12.844;2022-08-01T09:45:50;4.20;;;2.05;;
69381;SDS011;56560;50.692;12.844;2022-08-01T09:48:16;4.53;;;2.30;;
69381;SDS011;56560;50.692;12.844;2022-08-01T09:50:44;4.75;;;2.13;;
69381;SDS011;56560;50.692;12.844;2022-08-01T09:53:11;4.60;;;2.13;;
69381;SDS011;56560;50.692;12.844;2022-08-01T09:55:37;3.55;;;2.00;;
69381;SDS011;56560;50.692;12.844;2022-08-01T09:58:04;4.25;;;1.90;;
69381;SDS011;56560;50.692;12.844;2022-08-01T10:00:31;4.03;;;1.70;;
69381;SDS011;56560;50.692;12.844;2022-08-01T10:02:57;3.08;;;1.65;;
69381;SDS011;56560;50.692;12.844;2022-08-01T10:05:31;3.33;;;1.70;;
69381;SDS011;56560;50.692;12.844;2022-08-01T10:08:02;2.78;;;1.63;;
69381;SDS011;56560;50.692;12.844;2022-08-01T10:10:30;2.83;;;1.40;;
69381;SDS011;56560;50.692;12.844;2022-08-01T10:12:56;3.37;;;1.53;;
69381;SDS011;56560;50.692;12.844;2022-08-01T10:15:24;3.00;;;1.30;;
69381;SDS011;56560;50.692;12.844;2022-08-01T10:17:55;2.20;;;1.20;;
69381;SDS011;56560;50.692;12.844;2022-08-01T10:20:23;2.75;;;1.17;;
69381;SDS011;56560;50.692;12.844;2022-08-01T10:22:53;2.30;;;1.00;;
69381;SDS011;56560;50.692;12.844;2022-08-01T10:25:20;1.37;;;1.00;;
69381;SDS011;56560;50.692;12.844;2022-08-01T10:27:51;2.13;;;1.10;;
69381;SDS011;56560;50.692;12.844;2022-08-01T10:30:19;2.15;;;1.08;;
69381;SDS011;56560;50.692;12.844;2022-08-01T10:32:46;1.58;;;1.10;;
69381;SDS011;56560;50.692;12.844;2022-08-01T10:35:12;2.03;;;1.20;;
69381;SDS011;56560;50.692;12.844;2022-08-01T10:37:42;2.27;;;1.20;;
69381;SDS011;56560;50.692;12.844;2022-08-01T10:40:15;3.67;;;1.20;;
69381;SDS011;56560;50.692;12.844;2022-08-01T10:42:42;2.55;;;1.10;;
69381;SDS011;56560;50.692;12.844;2022-08-01T10:45:12;2.63;;;1.50;;
69381;SDS011;56560;50.692;12.844;2022-08-01T10:48:00;2.08;;;1.20;;
69381;SDS011;56560;50.692;12.844;2022-08-01T10:50:49;4.20;;;2.00;;
69381;SDS011;56560;50.692;12.844;2022-08-01T10:53:18;2.72;;;1.33;;
69381;SDS011;56560;50.692;12.844;2022-08-01T10:58:22;2.75;;;1.30;;
69381;SDS011;56560;50.692;12.844;2022-08-01T11:01:13;2.85;;;1.50;;
69381;SDS011;56560;50.692;12.844;2022-08-01T11:08:57;1.52;;;1.00;;
69381;SDS011;56560;50.692;12.844;2022-08-01T11:11:25;2.28;;;1.00;;
69381;SDS011;56560;50.692;12.844;2022-08-01T11:16:35;1.30;;;1.00;;
69381;SDS011;56560;50.692;12.844;2022-08-01T11:19:03;0.82;;;0.80;;
69381;SDS011;56560;50.692;12.844;2022-08-01T11:24:40;5.40;;;1.10;;
69381;SDS011;56560;50.692;12.844;2022-08-01T11:27:17;2.53;;;1.13;;
69381;SDS011;56560;50.692;12.844;2022-08-01T11:30:33;1.80;;;1.27;;
69381;SDS011;56560;50.692;12.844;2022-08-01T11:32:38;3.78;;;1.10;;
69381;SDS011;56560;50.692;12.844;2022-08-01T11:35:13;1.90;;;0.90;;
69381;SDS011;56560;50.692;12.844;2022-08-01T11:37:39;3.05;;;1.20;;
69381;SDS011;56560;50.692;12.844;2022-08-01T11:42:39;2.10;;;1.20;;
69381;SDS011;56560;50.692;12.844;2022-08-01T11:45:06;3.07;;;1.27;;
69381;SDS011;56560;50.692;12.844;2022-08-01T11:47:52;2.00;;;1.20;;
69381;SDS011;56560;50.692;12.844;2022-08-01T11:50:34;1.60;;;1.10;;
69381;SDS011;56560;50.692;12.844;2022-08-01T11:53:03;2.08;;;1.20;;
69381;SDS011;56560;50.692;12.844;2022-08-01T11:55:30;1.52;;;1.00;;
69381;SDS011;56560;50.692;12.844;2022-08-01T11:58:00;1.95;;;1.27;;
69381;SDS011;56560;50.692;12.844;2022-08-01T12:00:27;3.60;;;1.30;;
69381;SDS011;56560;50.692;12.844;2022-08-01T12:02:59;3.88;;;1.20;;
69381;SDS011;56560;50.692;12.844;2022-08-01T12:05:28;2.20;;;1.20;;
69381;SDS011;56560;50.692;12.844;2022-08-01T12:07:56;2.05;;;1.27;;
69381;SDS011;56560;50.692;12.844;2022-08-01T12:10:25;3.60;;;1.33;;
69381;SDS011;56560;50.692;12.844;2022-08-01T12:12:59;2.77;;;1.50;;
69381;SDS011;56560;50.692;12.844;2022-08-01T12:15:29;3.15;;;1.50;;
69381;SDS011;56560;50.692;12.844;2022-08-01T12:18:03;2.53;;;1.50;;
69381;SDS011;56560;50.692;12.844;2022-08-01T12:20:32;3.63;;;1.60;;
69381;SDS011;56560;50.692;12.844;2022-08-01T12:23:01;4.10;;;1.73;;
69381;SDS011;56560;50.692;12.844;2022-08-01T12:25:30;2.50;;;1.40;;
69381;SDS011;56560;50.692;12.844;2022-08-01T12:27:59;8.63;;;1.70;;
69381;SDS011;56560;50.692;12.844;2022-08-01T12:30:26;2.75;;;1.50;;
69381;SDS011;56560;50.692;12.844;2022-08-01T12:32:53;4.53;;;1.75;;
69381;SDS011;56560;50.692;12.844;2022-08-01T12:35:23;4.10;;;1.70;;
69381;SDS011;56560;50.692;12.844;2022-08-01T12:37:55;2.93;;;1.50;;
69381;SDS011;56560;50.692;12.844;2022-08-01T12:40:23;2.80;;;1.40;;
69381;SDS011;56560;50.692;12.844;2022-08-01T12:42:54;2.08;;;1.33;;
69381;SDS011;56560;50.692;12.844;2022-08-01T12:45:44;2.85;;;1.50;;
69381;SDS011;56560;50.692;12.844;2022-08-01T12:48:14;3.00;;;1.60;;
69381;SDS011;56560;50.692;12.844;2022-08-01T12:50:42;2.47;;;1.50;;
69381;SDS011;56560;50.692;12.844;2022-08-01T12:53:09;3.67;;;1.50;;
69381;SDS011;56560;50.692;12.844;2022-08-01T12:55:51;4.43;;;1.50;;
69381;SDS011;56560;50.692;12.844;2022-08-01T12:58:18;3.05;;;1.77;;
69381;SDS011;56560;50.692;12.844;2022-08-01T13:00:46;5.97;;;1.88;;
69381;SDS011;56560;50.692;12.844;2022-08-01T13:11:00;4.00;;;1.50;;
69381;SDS011;56560;50.692;12.844;2022-08-01T13:16:13;2.47;;;1.40;;
69381;SDS011;56560;50.692;12.844;2022-08-01T13:18:40;1.85;;;1.30;;
69381;SDS011;56560;50.692;12.844;2022-08-01T13:23:38;1.80;;;1.13;;
69381;SDS011;56560;50.692;12.844;2022-08-01T13:26:05;3.25;;;1.75;;
69381;SDS011;56560;50.692;12.844;2022-08-01T13:28:31;4.43;;;1.30;;
69381;SDS011;56560;50.692;12.844;2022-08-01T13:31:03;2.33;;;1.33;;
69381;SDS011;56560;50.692;12.844;2022-08-01T13:33:41;2.28;;;1.40;;
69381;SDS011;56560;50.692;12.844;2022-08-01T13:36:13;3.10;;;1.30;;
69381;SDS011;56560;50.692;12.844;2022-08-01T13:38:39;6.68;;;1.60;;
69381;SDS011;56560;50.692;12.844;2022-08-01T13:41:24;1.50;;;1.10;;
69381;SDS011;56560;50.692;12.844;2022-08-01T13:43:50;2.15;;;1.25;;
69381;SDS011;56560;50.692;12.844;2022-08-01T13:46:16;1.93;;;1.20;;
69381;SDS011;56560;50.692;12.844;2022-08-01T13:48:42;1.70;;;1.17;;
69381;SDS011;56560;50.692;12.844;2022-08-01T13:51:08;3.27;;;1.20;;
69381;SDS011;56560;50.692;12.844;2022-08-01T13:53:34;2.42;;;1.30;;
69381;SDS011;56560;50.692;12.844;2022-08-01T13:56:00;1.40;;;0.98;;
69381;SDS011;56560;50.692;12.844;2022-08-01T13:58:26;1.90;;;1.17;;
69381;SDS011;56560;50.692;12.844;2022-08-01T14:00:53;1.75;;;1.15;;
69381;SDS011;56560;50.692;12.844;2022-08-01T14:03:18;7.97;;;1.20;;
69381;SDS011;56560;50.692;12.844;2022-08-01T14:05:44;2.23;;;1.13;;
69381;SDS011;56560;50.692;12.844;2022-08-01T14:08:13;1.50;;;1.10;;
69381;SDS011;56560;50.692;12.844;2022-08-01T14:10:38;2.33;;;1.10;;
69381;SDS011;56560;50.692;12.844;2022-08-01T14:13:04;3.00;;;1.23;;
69381;SDS011;56560;50.692;12.844;2022-08-01T14:15:35;3.08;;;1.23;;
69381;SDS011;56560;50.692;12.844;2022-08-01T14:18:01;2.73;;;1.13;;
69381;SDS011;56560;50.692;12.844;2022-08-01T14:20:27;1.70;;;1.20;;
69381;SDS011;56560;50.692;12.844;2022-08-01T14:22:52;2.37;;;1.10;;
69381;SDS011;56560;50.692;12.844;2022-08-01T14:25:18;1.10;;;1.00;;
69381;SDS011;56560;50.692;12.844;2022-08-01T14:27:44;1.58;;;1.10;;
69381;SDS011;56560;50.692;12.844;2022-08-01T14:30:10;2.40;;;0.93;;
69381;SDS011;56560;50.692;12.844;2022-08-01T14:32:37;1.85;;;1.00;;
69381;SDS011;56560;50.692;12.844;2022-08-01T14:35:06;1.52;;;0.90;;
69381;SDS011;56560;50.692;12.844;2022-08-01T14:37:32;1.20;;;0.90;;
69381;SDS011;56560;50.692;12.844;2022-08-01T14:39:58;1.10;;;0.90;;
69381;SDS011;56560;50.692;12.844;2022-08-01T14:42:29;1.00;;;0.80;;
69381;SDS011;56560;50.692;12.844;2022-08-01T14:44:55;0.90;;;0.80;;
69381;SDS011;56560;50.692;12.844;2022-08-01T14:47:22;3.20;;;0.82;;
69381;SDS011;56560;50.692;12.844;2022-08-01T14:49:48;3.83;;;1.10;;
69381;SDS011;56560;50.692;12.844;2022-08-01T14:52:14;2.95;;;1.10;;
69381;SDS011;56560;50.692;12.844;2022-08-01T14:54:39;3.38;;;1.20;;
69381;SDS011;56560;50.692;12.844;2022-08-01T14:57:05;1.50;;;0.97;;
69381;SDS011;56560;50.692;12.844;2022-08-01T14:59:31;1.65;;;0.90;;
69381;SDS011;56560;50.692;12.844;2022-08-01T15:01:56;1.90;;;1.00;;
69381;SDS011;56560;50.692;12.844;2022-08-01T15:04:22;2.53;;;1.00;;
69381;SDS011;56560;50.692;12.844;2022-08-01T15:06:48;1.58;;;1.00;;
69381;SDS011;56560;50.692;12.844;2022-08-01T15:09:13;1.40;;;1.00;;
69381;SDS011;56560;50.692;12.844;2022-08-01T15:11:39;1.35;;;1.00;;
69381;SDS011;56560;50.692;12.844;2022-08-01T15:14:05;1.43;;;1.00;;
69381;SDS011;56560;50.692;12.844;2022-08-01T15:16:49;2.15;;;0.90;;
69381;SDS011;56560;50.692;12.844;2022-08-01T15:19:15;1.20;;;0.90;;
69381;SDS011;56560;50.692;12.844;2022-08-01T15:21:40;1.97;;;1.00;;
69381;SDS011;56560;50.692;12.844;2022-08-01T15:24:06;2.73;;;1.00;;